Time;durP1;ratioP1;P1;durP2;ratioP2;P2;SDS_P1;SDS_P2;PMS_P1;PMS_P2;Temp;Humidity;BMP_temperature;BMP_pressure;BME280_temperature;BME280_humidity;BME280_pressure;Samples;Min_cycle;Max_cycle;Signal;HPM_P1;HPM_P2
2023/09/17 00:00:37;;;;;;;11.27;8.00;;;17.20;99.90;;;;;;5102053;28;20028;-69
2023/09/17 00:03:03;;;;;;;10.80;8.18;;;17.20;99.90;;;;;;5104972;28;20583;-69
2023/09/17 00:05:31;;;;;;;12.93;8.70;;;17.20;99.90;;;;;;5105061;28;20535;-69
2023/09/17 00:07:57;;;;;;;11.35;8.23;;;17.20;99.90;;;;;;5102923;28;20035;-68
2023/09/17 00:10:23;;;;;;;11.63;7.97;;;17.20;99.90;;;;;;5101653;28;20036;-68
2023/09/17 00:12:54;;;;;;;11.98;8.40;;;17.20;99.90;;;;;;5105188;28;20027;-69
2023/09/17 00:15:21;;;;;;;10.57;7.57;;;17.10;99.90;;;;;;5097073;28;20435;-69
2023/09/17 00:17:48;;;;;;;10.85;7.68;;;17.10;99.90;;;;;;5104835;28;20028;-69
2023/09/17 00:20:14;;;;;;;10.48;7.45;;;17.10;99.90;;;;;;5104717;28;20030;-68
2023/09/17 00:22:40;;;;;;;10.10;7.25;;;17.10;99.90;;;;;;5105232;28;20188;-69
2023/09/17 00:25:06;;;;;;;10.30;7.90;;;17.10;99.90;;;;;;5104962;28;20550;-68
2023/09/17 00:27:32;;;;;;;12.43;9.15;;;17.10;99.90;;;;;;5104840;28;20031;-68
2023/09/17 00:30:00;;;;;;;10.15;7.30;;;17.10;99.90;;;;;;5105239;28;20608;-68
2023/09/17 00:32:26;;;;;;;10.48;7.50;;;17.10;99.90;;;;;;5103305;28;20034;-68
2023/09/17 00:34:52;;;;;;;10.60;7.32;;;17.10;99.90;;;;;;5103134;28;20830;-69
2023/09/17 00:37:18;;;;;;;10.18;7.05;;;17.10;99.90;;;;;;5103426;28;20036;-70
2023/09/17 00:39:44;;;;;;;11.10;7.38;;;17.00;99.90;;;;;;5103401;28;20597;-68
2023/09/17 00:42:10;;;;;;;9.25;6.90;;;17.00;99.90;;;;;;5103258;28;20828;-68
2023/09/17 00:44:36;;;;;;;9.00;7.10;;;17.00;99.90;;;;;;5104699;28;20046;-69
2023/09/17 00:47:04;;;;;;;9.23;7.22;;;17.00;99.90;;;;;;5104898;28;20024;-69
2023/09/17 00:49:32;;;;;;;10.63;7.47;;;16.90;99.90;;;;;;5104775;28;20106;-68
2023/09/17 00:51:59;;;;;;;10.32;6.95;;;16.90;99.90;;;;;;5104750;28;20070;-68
2023/09/17 00:54:27;;;;;;;9.38;6.68;;;16.90;99.90;;;;;;5104439;28;20110;-69
2023/09/17 00:56:54;;;;;;;10.45;6.72;;;16.80;99.90;;;;;;5101277;28;20039;-68
2023/09/17 00:59:20;;;;;;;9.63;7.40;;;16.80;99.90;;;;;;5103276;28;20027;-69
2023/09/17 01:01:46;;;;;;;8.18;6.50;;;16.80;99.90;;;;;;5103124;28;20032;-68
2023/09/17 01:04:15;;;;;;;9.40;6.80;;;16.70;99.90;;;;;;5104089;28;20066;-69
2023/09/17 01:06:42;;;;;;;9.43;7.82;;;16.70;99.90;;;;;;5099814;28;20036;-69
2023/09/17 01:09:08;;;;;;;9.02;6.68;;;16.70;99.90;;;;;;5104613;28;20027;-68
2023/09/17 01:11:37;;;;;;;10.77;7.60;;;16.70;99.90;;;;;;5106740;28;20078;-68
2023/09/17 01:14:15;;;;;;;10.73;8.30;;;16.70;99.90;;;;;;5106863;28;20047;-68
2023/09/17 01:16:47;;;;;;;11.10;7.40;;;16.80;99.90;;;;;;5106492;28;20118;-68
2023/09/17 01:19:22;;;;;;;9.25;7.00;;;16.80;99.90;;;;;;5108485;27;20046;-68
2023/09/17 01:21:58;;;;;;;9.52;6.80;;;16.70;99.90;;;;;;5107214;28;20035;-68
2023/09/17 01:24:30;;;;;;;;;;;16.70;99.90;;;;;;5104921;28;20035;-68
2023/09/17 01:27:03;;;;;;;9.98;6.65;;;16.70;99.90;;;;;;5106640;28;19912;-68
2023/09/17 01:29:38;;;;;;;9.48;7.05;;;16.70;99.90;;;;;;5106774;28;20028;-69
2023/09/17 01:32:07;;;;;;;8.27;6.83;;;16.60;99.90;;;;;;5106731;28;20039;-69
2023/09/17 01:34:39;;;;;;;9.70;7.50;;;16.60;99.90;;;;;;5103067;28;20024;-69
2023/09/17 01:37:16;;;;;;;10.60;7.68;;;16.60;99.90;;;;;;5105559;28;20035;-69
2023/09/17 01:39:49;;;;;;;9.82;6.57;;;16.60;99.90;;;;;;5106394;28;20080;-69
2023/09/17 01:42:16;;;;;;;9.02;6.97;;;16.50;99.90;;;;;;5107851;28;20031;-69
2023/09/17 01:44:44;;;;;;;10.63;7.22;;;16.50;99.90;;;;;;5107557;28;20035;-68
2023/09/17 01:47:10;;;;;;;8.52;7.20;;;16.50;99.90;;;;;;5102339;28;20118;-68
2023/09/17 01:49:38;;;;;;;9.40;6.45;;;16.50;99.90;;;;;;5107681;28;20044;-68
2023/09/17 01:52:04;;;;;;;9.38;6.47;;;16.50;99.90;;;;;;5107537;28;20035;-68
2023/09/17 01:54:30;;;;;;;8.77;6.45;;;16.50;99.90;;;;;;5107286;28;20024;-68
2023/09/17 01:56:56;;;;;;;10.98;6.40;;;16.50;99.90;;;;;;5102625;28;20089;-69
2023/09/17 01:59:22;;;;;;;8.32;6.20;;;16.50;99.90;;;;;;5106129;28;20039;-68
2023/09/17 02:01:48;;;;;;;10.25;7.40;;;16.50;99.90;;;;;;5102845;28;20096;-68
2023/09/17 02:04:14;;;;;;;9.95;7.45;;;16.50;99.90;;;;;;5107352;28;20451;-69
2023/09/17 02:06:39;;;;;;;10.05;7.40;;;16.50;99.90;;;;;;5105713;28;20061;-69
2023/09/17 02:09:05;;;;;;;9.77;7.38;;;16.50;99.90;;;;;;5106159;28;20044;-68
2023/09/17 02:11:32;;;;;;;8.73;6.35;;;16.50;99.90;;;;;;5105964;28;20043;-68
2023/09/17 02:13:57;;;;;;;7.70;6.53;;;16.40;99.90;;;;;;5105930;28;20043;-68
2023/09/17 02:16:24;;;;;;;9.13;6.63;;;16.40;99.90;;;;;;5107265;28;20099;-68
2023/09/17 02:18:54;;;;;;;9.40;7.03;;;16.40;99.90;;;;;;5107205;28;20027;-69
2023/09/17 02:21:20;;;;;;;9.20;6.47;;;16.40;99.90;;;;;;5098344;28;20028;-68
2023/09/17 02:23:46;;;;;;;8.52;6.35;;;16.30;99.90;;;;;;5103457;27;20027;-68
2023/09/17 02:26:12;;;;;;;8.02;6.40;;;16.30;99.90;;;;;;5105459;28;20042;-68
2023/09/17 02:28:38;;;;;;;9.23;6.43;;;16.30;99.90;;;;;;5100793;28;20028;-68
2023/09/17 02:31:06;;;;;;;9.95;6.97;;;16.30;99.90;;;;;;5105081;28;20043;-68
2023/09/17 02:33:31;;;;;;;7.00;5.80;;;16.30;99.90;;;;;;5105045;28;20039;-68
2023/09/17 02:35:57;;;;;;;8.23;6.40;;;16.20;99.90;;;;;;5106909;28;20096;-68
2023/09/17 02:38:23;;;;;;;11.05;6.53;;;16.20;99.90;;;;;;5106781;28;20027;-68
2023/09/17 02:40:49;;;;;;;9.60;7.57;;;16.20;99.90;;;;;;5106899;28;20059;-70
2023/09/17 02:43:16;;;;;;;9.30;6.88;;;16.20;99.90;;;;;;5104580;28;20797;-68
2023/09/17 02:45:43;;;;;;;8.25;7.00;;;16.20;99.90;;;;;;5106907;28;20132;-69
2023/09/17 02:48:11;;;;;;;11.30;7.25;;;16.10;99.90;;;;;;5104754;28;20085;-68
2023/09/17 02:50:41;;;;;;;9.95;7.78;;;16.10;99.90;;;;;;5105674;28;20035;-68
2023/09/17 02:53:07;;;;;;;10.07;7.55;;;16.00;99.90;;;;;;5105106;28;20085;-68
2023/09/17 02:55:36;;;;;;;9.95;6.78;;;16.00;99.90;;;;;;5104912;28;20576;-68
2023/09/17 02:58:02;;;;;;;10.18;7.75;;;16.00;99.90;;;;;;5105114;28;20119;-68
2023/09/17 03:00:33;;;;;;;9.55;6.95;;;15.90;99.90;;;;;;5105230;28;20451;-68
2023/09/17 03:02:59;;;;;;;7.93;6.43;;;15.90;99.90;;;;;;5104869;28;20126;-68
2023/09/17 03:05:25;;;;;;;9.68;6.47;;;15.90;99.90;;;;;;5106520;28;20168;-68
2023/09/17 03:07:56;;;;;;;9.25;6.82;;;15.90;99.90;;;;;;5104660;28;20027;-68
2023/09/17 03:10:23;;;;;;;9.68;6.35;;;15.90;99.90;;;;;;5104586;28;20031;-68
2023/09/17 03:12:49;;;;;;;9.65;6.78;;;15.90;99.90;;;;;;5102567;28;20059;-68
2023/09/17 03:15:16;;;;;;;7.18;6.45;;;15.90;99.90;;;;;;5104439;28;20026;-68
2023/09/17 03:17:42;;;;;;;8.40;6.75;;;15.90;99.90;;;;;;5104359;28;20028;-68
2023/09/17 03:20:18;;;;;;;9.35;6.93;;;15.80;99.90;;;;;;5104231;28;20031;-68
2023/09/17 03:22:45;;;;;;;8.38;6.53;;;15.90;99.90;;;;;;5101873;28;20062;-69
2023/09/17 03:25:12;;;;;;;7.93;6.53;;;15.80;99.90;;;;;;5103161;28;20118;-68
2023/09/17 03:27:41;;;;;;;7.45;6.18;;;15.80;99.90;;;;;;5104205;28;20426;-68
2023/09/17 03:30:07;;;;;;;7.13;5.57;;;15.80;99.90;;;;;;5104321;28;20086;-69
2023/09/17 03:32:33;;;;;;;6.88;6.00;;;15.90;99.90;;;;;;5102717;28;20032;-69
2023/09/17 03:35:01;;;;;;;10.93;6.40;;;15.80;99.90;;;;;;5101149;28;20034;-69
2023/09/17 03:37:27;;;;;;;8.10;5.97;;;15.80;99.90;;;;;;5100872;28;20020;-67
2023/09/17 03:40:10;;;;;;;13.32;7.65;;;15.80;99.90;;;;;;5120191;27;20034;-68
2023/09/17 03:42:39;;;;;;;11.55;6.97;;;15.80;99.90;;;;;;5103922;28;20031;-68
2023/09/17 03:45:09;;;;;;;9.88;6.80;;;15.80;99.90;;;;;;5103735;28;20031;-68
2023/09/17 03:47:39;;;;;;;8.00;6.80;;;15.80;99.90;;;;;;5104133;28;20030;-68
2023/09/17 03:50:06;;;;;;;11.80;7.57;;;15.70;99.90;;;;;;5105909;28;20032;-68
2023/09/17 03:52:34;;;;;;;11.38;7.43;;;15.70;99.90;;;;;;5105743;28;20035;-68
2023/09/17 03:55:07;;;;;;;8.07;6.70;;;15.70;99.90;;;;;;5103559;28;20159;-68
2023/09/17 03:57:37;;;;;;;8.70;6.57;;;15.60;99.90;;;;;;5103880;28;20914;-68
2023/09/17 04:00:15;;;;;;;9.00;6.45;;;15.60;99.90;;;;;;5103824;28;20024;-69
2023/09/17 04:02:44;;;;;;;6.63;5.95;;;15.50;99.90;;;;;;5098497;28;20035;-69
2023/09/17 04:05:12;;;;;;;8.75;6.63;;;15.50;99.90;;;;;;5103588;28;20515;-68
2023/09/17 04:07:45;;;;;;;8.43;7.45;;;15.50;99.90;;;;;;5103360;28;20031;-68
2023/09/17 04:10:12;;;;;;;7.43;5.90;;;15.50;99.90;;;;;;5103675;28;20547;-68
2023/09/17 04:12:40;;;;;;;7.60;6.22;;;15.50;99.90;;;;;;5103744;28;20085;-68
2023/09/17 04:15:12;;;;;;;8.40;6.25;;;15.50;99.90;;;;;;5103404;28;20032;-69
2023/09/17 04:17:39;;;;;;;8.07;6.38;;;15.40;99.90;;;;;;5103692;28;20027;-68
2023/09/17 04:20:10;;;;;;;7.85;6.40;;;15.40;99.90;;;;;;5103438;28;20118;-69
2023/09/17 04:22:36;;;;;;;8.20;6.43;;;15.40;99.90;;;;;;5103878;28;20043;-69
2023/09/17 04:25:04;;;;;;;7.88;6.75;;;15.40;99.90;;;;;;5105083;28;20027;-68
2023/09/17 04:27:31;;;;;;;8.02;6.57;;;15.40;99.90;;;;;;5103490;28;20028;-68
2023/09/17 04:29:57;;;;;;;10.38;6.72;;;15.40;99.90;;;;;;5103846;28;20035;-68
2023/09/17 04:32:24;;;;;;;8.15;6.32;;;15.40;99.90;;;;;;5103300;28;20039;-68
2023/09/17 04:34:49;;;;;;;8.35;6.90;;;15.40;99.90;;;;;;5103304;28;20540;-68
2023/09/17 04:37:19;;;;;;;9.85;6.18;;;15.30;99.90;;;;;;5104636;28;20081;-68
2023/09/17 04:39:48;;;;;;;8.90;6.28;;;15.30;99.90;;;;;;5102340;28;20032;-68
2023/09/17 04:42:15;;;;;;;7.10;6.40;;;15.30;99.90;;;;;;5104079;28;20027;-68
2023/09/17 04:44:41;;;;;;;9.48;6.72;;;15.30;99.90;;;;;;5099978;28;20507;-68
2023/09/17 04:47:07;;;;;;;8.68;6.95;;;15.30;99.90;;;;;;5107262;28;20038;-68
2023/09/17 04:49:33;;;;;;;10.50;6.80;;;15.40;99.90;;;;;;5107291;28;20259;-68
2023/09/17 04:52:00;;;;;;;8.68;6.95;;;15.40;99.90;;;;;;5107362;28;20106;-69
2023/09/17 04:54:27;;;;;;;9.55;6.68;;;15.40;99.90;;;;;;5107016;28;20096;-68
2023/09/17 04:56:53;;;;;;;9.68;6.70;;;15.40;99.90;;;;;;5106808;28;20024;-68
2023/09/17 04:59:20;;;;;;;9.55;7.43;;;15.40;99.90;;;;;;5107243;28;20470;-69
2023/09/17 05:01:46;;;;;;;11.68;6.53;;;15.40;99.90;;;;;;5107664;28;20695;-69
2023/09/17 05:04:12;;;;;;;8.85;6.55;;;15.40;99.90;;;;;;5106880;28;20032;-69
2023/09/17 05:06:38;;;;;;;7.75;5.88;;;15.30;99.90;;;;;;5107402;28;20066;-69
2023/09/17 05:09:04;;;;;;;8.88;6.47;;;15.30;99.90;;;;;;5107200;28;20081;-68
2023/09/17 05:11:32;;;;;;;7.20;6.07;;;15.30;99.90;;;;;;5105910;28;20095;-69
2023/09/17 05:13:58;;;;;;;8.23;6.53;;;15.30;99.90;;;;;;5106761;28;20146;-68
2023/09/17 05:16:24;;;;;;;6.53;5.80;;;15.30;99.90;;;;;;5106973;28;20122;-69
2023/09/17 05:18:50;;;;;;;9.25;6.25;;;15.30;99.90;;;;;;5107177;28;20114;-69
2023/09/17 05:21:17;;;;;;;8.38;6.07;;;15.30;99.90;;;;;;5106842;28;20552;-69
2023/09/17 05:23:43;;;;;;;6.85;5.80;;;15.30;99.90;;;;;;5107014;28;20039;-68
2023/09/17 05:26:09;;;;;;;8.10;6.03;;;15.30;99.90;;;;;;5106752;28;20031;-68
2023/09/17 05:28:35;;;;;;;10.43;6.63;;;15.40;99.90;;;;;;5106653;28;20053;-68
2023/09/17 05:31:01;;;;;;;8.18;6.57;;;15.40;99.90;;;;;;5106592;28;20577;-68
2023/09/17 05:33:27;;;;;;;9.18;6.97;;;15.40;99.90;;;;;;5101440;28;20118;-68
2023/09/17 05:35:56;;;;;;;7.28;6.22;;;15.50;99.90;;;;;;5102896;28;20023;-68
2023/09/17 05:38:26;;;;;;;6.90;5.85;;;15.50;99.90;;;;;;5106199;28;20031;-68
2023/09/17 05:40:52;;;;;;;7.95;6.53;;;15.50;99.90;;;;;;5106303;28;20061;-68
2023/09/17 05:43:18;;;;;;;8.05;6.10;;;15.50;99.90;;;;;;5100849;28;20563;-69
2023/09/17 05:45:44;;;;;;;7.97;6.13;;;15.50;99.90;;;;;;5108023;28;20031;-68
2023/09/17 05:48:10;;;;;;;9.10;7.18;;;15.50;99.90;;;;;;5103408;28;20967;-68
2023/09/17 05:50:37;;;;;;;10.48;8.05;;;15.60;99.90;;;;;;5106556;28;20027;-68
2023/09/17 05:53:03;;;;;;;11.48;7.60;;;15.70;99.90;;;;;;5104072;28;20419;-68
2023/09/17 05:55:30;;;;;;;11.90;7.60;;;15.60;99.90;;;;;;5106210;28;20020;-69
2023/09/17 05:57:56;;;;;;;14.80;8.48;;;15.70;99.90;;;;;;5101984;28;20031;-68
2023/09/17 06:00:22;;;;;;;9.68;7.22;;;15.70;99.90;;;;;;5106290;28;20055;-69
2023/09/17 06:02:48;;;;;;;16.77;10.52;;;15.80;99.90;;;;;;5107806;28;20058;-69
2023/09/17 06:05:16;;;;;;;13.80;8.90;;;15.80;99.90;;;;;;5107997;28;20053;-69
2023/09/17 06:07:42;;;;;;;11.75;8.43;;;15.90;99.90;;;;;;5104860;28;20481;-68
2023/09/17 06:10:08;;;;;;;12.30;9.15;;;15.90;99.90;;;;;;5107282;28;20035;-69
2023/09/17 06:12:34;;;;;;;11.75;8.30;;;15.90;99.90;;;;;;5105842;28;20035;-69
2023/09/17 06:15:02;;;;;;;11.95;8.27;;;16.00;99.90;;;;;;5098717;28;20060;-69
2023/09/17 06:17:27;;;;;;;10.18;7.40;;;16.10;99.90;;;;;;5105655;28;20024;-68
2023/09/17 06:19:53;;;;;;;8.52;6.47;;;16.20;99.90;;;;;;5105670;28;20081;-69
2023/09/17 06:22:19;;;;;;;7.40;6.28;;;16.20;99.90;;;;;;5105600;28;20027;-68
2023/09/17 06:24:45;;;;;;;8.60;6.50;;;16.30;99.90;;;;;;5105269;28;20035;-68
2023/09/17 06:27:10;;;;;;;9.18;6.35;;;16.40;99.90;;;;;;5103640;28;20142;-69
2023/09/17 06:29:36;;;;;;;6.75;6.00;;;16.50;99.90;;;;;;5105557;28;20039;-68
2023/09/17 06:32:03;;;;;;;7.38;6.03;;;16.50;99.90;;;;;;5103253;28;20139;-69
2023/09/17 06:34:29;;;;;;;15.15;9.48;;;16.60;99.90;;;;;;5104863;28;20031;-69
2023/09/17 06:36:55;;;;;;;14.88;10.80;;;16.70;99.90;;;;;;5105465;28;20032;-69
2023/09/17 06:39:21;;;;;;;10.38;8.98;;;16.90;99.90;;;;;;5105400;28;20034;-69
2023/09/17 06:41:47;;;;;;;10.48;8.38;;;17.00;99.90;;;;;;5105396;28;20038;-69
2023/09/17 06:44:12;;;;;;;10.52;9.13;;;17.00;99.90;;;;;;5106445;28;20110;-69
2023/09/17 06:46:38;;;;;;;10.27;8.30;;;17.10;99.90;;;;;;5106344;28;20039;-69
2023/09/17 06:49:04;;;;;;;9.10;8.13;;;17.10;99.90;;;;;;5107036;28;20050;-69
2023/09/17 06:51:30;;;;;;;10.00;8.20;;;17.30;99.90;;;;;;5106240;28;20035;-69
2023/09/17 06:53:55;;;;;;;9.68;7.90;;;17.40;99.90;;;;;;5106488;28;20039;-69
2023/09/17 06:56:24;;;;;;;10.75;8.45;;;17.60;99.90;;;;;;5097923;28;20024;-69
2023/09/17 06:58:50;;;;;;;12.20;9.60;;;17.80;99.90;;;;;;5100087;28;20162;-69
2023/09/17 07:01:16;;;;;;;11.30;9.35;;;18.10;99.90;;;;;;5105145;28;20106;-69
2023/09/17 07:03:41;;;;;;;11.57;8.70;;;18.20;99.90;;;;;;5106162;28;20053;-69
2023/09/17 07:06:07;;;;;;;11.70;8.38;;;18.40;99.90;;;;;;5105235;27;20035;-69
2023/09/17 07:08:33;;;;;;;8.88;7.28;;;18.50;99.90;;;;;;5106375;28;20034;-68
2023/09/17 07:10:59;;;;;;;9.52;7.55;;;18.50;99.90;;;;;;5106088;28;20036;-69
2023/09/17 07:13:24;;;;;;;9.02;8.10;;;18.60;99.90;;;;;;5104316;28;20131;-69
2023/09/17 07:15:50;;;;;;;10.35;7.82;;;18.60;99.90;;;;;;5101640;28;20038;-68
2023/09/17 07:18:16;;;;;;;10.27;8.55;;;18.70;99.90;;;;;;5106214;28;20028;-69
2023/09/17 07:20:42;;;;;;;12.38;8.73;;;18.80;99.90;;;;;;5106517;28;20035;-68
2023/09/17 07:23:08;;;;;;;13.77;9.27;;;18.90;99.90;;;;;;5103972;28;20036;-69
2023/09/17 07:25:34;;;;;;;13.52;10.52;;;19.10;99.90;;;;;;5099327;28;20059;-68
2023/09/17 07:28:04;;;;;;;10.23;8.73;;;19.20;99.90;;;;;;5104250;28;20351;-69
2023/09/17 07:30:37;;;;;;;10.85;8.90;;;19.30;99.90;;;;;;5104567;28;20122;-69
2023/09/17 07:33:04;;;;;;;11.15;8.93;;;19.40;99.90;;;;;;5102266;28;20500;-68
2023/09/17 07:35:33;;;;;;;13.48;9.63;;;19.50;99.90;;;;;;5103891;28;20019;-69
2023/09/17 07:38:01;;;;;;;14.15;10.73;;;19.70;99.90;;;;;;5101567;28;20115;-69
2023/09/17 07:40:27;;;;;;;13.23;9.85;;;19.90;99.90;;;;;;5102470;28;20088;-69
2023/09/17 07:42:53;;;;;;;17.23;12.38;;;20.00;99.90;;;;;;5098749;28;20035;-69
2023/09/17 07:45:19;;;;;;;13.23;9.57;;;20.20;99.90;;;;;;5105031;28;20027;-69
2023/09/17 07:47:45;;;;;;;13.20;9.93;;;20.40;99.90;;;;;;5104088;28;20031;-69
2023/09/17 07:50:11;;;;;;;12.35;10.07;;;20.70;99.90;;;;;;5105929;28;20039;-69
2023/09/17 07:52:39;;;;;;;13.05;10.98;;;21.10;99.90;;;;;;5105619;28;20469;-69
2023/09/17 07:55:05;;;;;;;16.30;10.98;;;21.40;99.90;;;;;;5105156;28;20047;-68
2023/09/17 07:57:31;;;;;;;11.52;8.95;;;21.50;99.90;;;;;;5104798;28;20245;-69
2023/09/17 07:59:57;;;;;;;18.23;12.00;;;21.40;99.90;;;;;;5102940;28;20208;-69
2023/09/17 08:02:23;;;;;;;13.63;10.57;;;21.40;99.90;;;;;;5105213;28;20034;-69
2023/09/17 08:04:48;;;;;;;18.17;12.38;;;21.30;99.90;;;;;;5105048;28;20544;-69
2023/09/17 08:07:16;;;;;;;13.68;11.27;;;21.20;99.90;;;;;;5105506;27;20467;-69
2023/09/17 08:09:42;;;;;;;12.90;11.23;;;21.20;99.90;;;;;;5105311;28;20062;-69
2023/09/17 08:12:08;;;;;;;13.70;11.18;;;21.20;99.90;;;;;;5104745;28;20104;-68
2023/09/17 08:14:34;;;;;;;14.07;9.90;;;21.20;99.90;;;;;;5102570;28;20032;-69
2023/09/17 08:17:01;;;;;;;13.25;11.52;;;21.20;99.90;;;;;;5105165;28;20050;-68
2023/09/17 08:19:27;;;;;;;12.23;9.00;;;21.20;99.90;;;;;;5104645;28;20031;-69
2023/09/17 08:21:52;;;;;;;11.35;8.73;;;21.20;99.90;;;;;;5104931;28;20035;-69
2023/09/17 08:24:20;;;;;;;15.73;11.43;;;21.20;99.90;;;;;;5102581;28;20134;-69
2023/09/17 08:26:49;;;;;;;12.48;10.57;;;21.30;99.90;;;;;;5105211;28;20044;-69
2023/09/17 08:29:15;;;;;;;13.90;10.48;;;21.40;99.90;;;;;;5105199;28;20055;-69
2023/09/17 08:31:41;;;;;;;10.38;9.30;;;21.50;99.90;;;;;;5105084;28;20086;-68
2023/09/17 08:34:07;;;;;;;12.65;10.45;;;21.60;99.90;;;;;;5102163;28;20085;-69
2023/09/17 08:36:32;;;;;;;12.90;8.25;;;21.70;99.90;;;;;;5101709;28;20028;-69
2023/09/17 08:38:58;;;;;;;13.77;9.88;;;21.80;99.90;;;;;;5103721;28;20470;-68
2023/09/17 08:41:24;;;;;;;13.70;9.23;;;21.90;99.90;;;;;;5104897;28;20497;-68
2023/09/17 08:43:53;;;;;;;12.68;8.90;;;22.10;99.90;;;;;;5104670;28;20038;-69
2023/09/17 08:46:22;;;;;;;11.10;8.38;;;22.10;99.90;;;;;;5104694;28;20042;-69
2023/09/17 08:48:48;;;;;;;10.85;7.68;;;22.20;99.90;;;;;;5103511;28;20767;-69
2023/09/17 08:51:18;;;;;;;7.88;7.07;;;22.20;99.90;;;;;;5103650;28;20113;-69
2023/09/17 08:54:24;;;;;;;10.02;7.43;;;22.20;99.90;;;;;;5104471;28;20580;-68
2023/09/17 08:56:51;;;;;;;11.82;8.02;;;22.40;99.90;;;;;;5099082;28;20051;-68
2023/09/17 08:59:24;;;;;;;8.65;6.75;;;22.60;99.90;;;;;;5104680;28;20614;-69
2023/09/17 09:01:51;;;;;;;10.15;7.15;;;22.70;99.90;;;;;;5101046;28;20506;-68
2023/09/17 09:04:18;;;;;;;8.30;6.50;;;22.80;99.90;;;;;;5103958;28;20023;-69
2023/09/17 09:06:45;;;;;;;7.13;5.93;;;23.00;99.90;;;;;;5101845;28;20040;-69
2023/09/17 09:09:12;;;;;;;8.18;5.60;;;23.10;99.90;;;;;;5103827;28;20548;-69
2023/09/17 09:11:38;;;;;;;8.63;6.18;;;23.20;99.90;;;;;;5102410;28;20112;-69
2023/09/17 09:14:06;;;;;;;9.57;6.00;;;23.30;99.40;;;;;;5104625;28;20032;-69
2023/09/17 09:16:37;;;;;;;6.57;5.50;;;23.40;99.10;;;;;;5100417;28;20402;-69
2023/09/17 09:19:04;;;;;;;8.23;5.63;;;23.50;98.90;;;;;;5104514;28;20032;-69
2023/09/17 09:21:30;;;;;;;6.07;5.28;;;23.70;98.30;;;;;;5104689;28;20139;-69
2023/09/17 09:23:57;;;;;;;6.10;4.78;;;23.90;98.10;;;;;;5104162;28;20056;-69
2023/09/17 09:26:37;;;;;;;9.13;5.68;;;24.10;97.40;;;;;;5098256;28;20035;-69
2023/09/17 09:29:04;;;;;;;5.93;4.90;;;24.40;96.50;;;;;;5101889;28;20061;-69
2023/09/17 09:31:31;;;;;;;5.03;4.53;;;24.40;96.30;;;;;;5104620;28;20032;-69
2023/09/17 09:33:59;;;;;;;6.60;4.72;;;24.40;97.00;;;;;;5104325;28;20027;-69
2023/09/17 09:36:29;;;;;;;7.15;4.75;;;24.40;96.20;;;;;;5107599;28;20076;-69
2023/09/17 09:38:56;;;;;;;4.90;4.32;;;24.50;96.10;;;;;;5104649;28;20024;-69
2023/09/17 09:41:23;;;;;;;4.78;4.05;;;24.50;94.60;;;;;;5100033;28;20036;-69
2023/09/17 09:43:50;;;;;;;4.18;3.67;;;24.50;94.50;;;;;;5106410;28;20517;-69
2023/09/17 09:46:16;;;;;;;4.00;3.60;;;24.50;94.00;;;;;;5100427;28;20051;-69
2023/09/17 09:48:41;;;;;;;3.95;3.10;;;24.40;93.90;;;;;;5106132;28;20036;-69
2023/09/17 09:51:09;;;;;;;4.97;4.13;;;24.40;93.00;;;;;;5106336;28;20035;-69
2023/09/17 09:53:34;;;;;;;5.20;4.15;;;24.50;94.30;;;;;;5107990;28;20032;-69
2023/09/17 09:56:03;;;;;;;4.20;3.75;;;24.70;94.00;;;;;;5106374;28;20036;-69
2023/09/17 09:58:29;;;;;;;3.90;3.30;;;24.90;94.10;;;;;;5107731;28;20127;-69
2023/09/17 10:00:57;;;;;;;4.10;3.70;;;25.00;93.70;;;;;;5105449;28;20032;-69
2023/09/17 10:03:24;;;;;;;4.70;3.78;;;25.10;92.20;;;;;;5099593;28;20032;-70
2023/09/17 10:05:50;;;;;;;4.30;3.65;;;25.20;91.60;;;;;;5107617;28;20042;-69
2023/09/17 10:08:17;;;;;;;4.10;3.45;;;25.30;91.20;;;;;;5107694;28;20038;-69
2023/09/17 10:10:43;;;;;;;5.20;3.35;;;25.30;90.10;;;;;;5107378;28;20515;-69
2023/09/17 10:13:10;;;;;;;5.50;3.45;;;25.30;89.50;;;;;;5105463;28;20041;-69
2023/09/17 10:15:38;;;;;;;5.10;4.03;;;25.30;90.30;;;;;;5107335;28;20398;-69
2023/09/17 10:18:08;;;;;;;4.28;3.85;;;25.40;91.30;;;;;;5104105;28;20505;-69
2023/09/17 10:20:34;;;;;;;4.50;3.40;;;25.50;91.80;;;;;;5107161;28;20031;-69
2023/09/17 10:23:02;;;;;;;4.45;3.92;;;25.50;91.80;;;;;;5106863;28;20042;-69
2023/09/17 10:25:30;;;;;;;4.22;3.83;;;25.60;91.80;;;;;;5107203;28;20739;-69
2023/09/17 10:27:56;;;;;;;7.72;4.70;;;26.20;92.10;;;;;;5107138;28;20035;-69
2023/09/17 10:30:22;;;;;;;5.40;4.47;;;27.30;90.40;;;;;;5106156;28;20035;-69
2023/09/17 10:32:50;;;;;;;5.85;4.00;;;27.90;88.60;;;;;;5107184;28;20070;-69
2023/09/17 10:35:16;;;;;;;4.35;3.88;;;28.20;87.00;;;;;;5106886;28;20712;-69
2023/09/17 10:37:43;;;;;;;4.53;3.90;;;28.20;84.40;;;;;;5106950;28;20042;-69
2023/09/17 10:40:10;;;;;;;4.25;3.70;;;28.00;84.20;;;;;;5106985;28;20517;-70
2023/09/17 10:42:39;;;;;;;4.70;3.40;;;27.70;82.30;;;;;;5105299;28;20039;-69
2023/09/17 10:45:13;;;;;;;4.30;3.90;;;27.50;83.60;;;;;;5104448;28;20028;-69
2023/09/17 10:47:40;;;;;;;6.03;3.40;;;27.40;82.80;;;;;;5107160;28;20036;-69
2023/09/17 10:50:08;;;;;;;3.50;3.15;;;27.30;83.60;;;;;;5106860;28;20028;-69
2023/09/17 10:52:35;;;;;;;4.55;3.25;;;27.30;84.00;;;;;;5105810;28;21989;-68
2023/09/17 10:55:04;;;;;;;3.58;2.95;;;27.30;81.10;;;;;;5103562;28;20043;-67
2023/09/17 10:57:39;;;;;;;4.38;3.67;;;27.20;81.30;;;;;;5106728;28;20028;-68
2023/09/17 11:00:14;;;;;;;4.28;3.88;;;27.30;81.20;;;;;;5106505;28;20034;-68
2023/09/17 11:02:55;;;;;;;4.05;3.40;;;27.20;81.70;;;;;;5106040;28;20036;-68
2023/09/17 11:05:24;;;;;;;3.95;2.85;;;27.20;78.40;;;;;;5106563;28;20040;-67
2023/09/17 11:07:58;;;;;;;3.50;3.20;;;27.10;78.20;;;;;;5106245;28;20092;-69
2023/09/17 11:10:24;;;;;;;3.25;2.88;;;27.00;79.80;;;;;;5091011;28;20035;-69
2023/09/17 11:12:51;;;;;;;3.25;2.60;;;27.00;79.80;;;;;;5106120;28;20039;-70
2023/09/17 11:15:18;;;;;;;4.72;2.92;;;27.00;79.80;;;;;;5105679;28;20023;-69
2023/09/17 11:17:47;;;;;;;3.22;2.75;;;27.00;78.70;;;;;;5106398;28;20030;-69
2023/09/17 11:20:16;;;;;;;2.88;2.60;;;26.90;79.00;;;;;;5106529;28;20031;-69
2023/09/17 11:22:44;;;;;;;3.55;2.65;;;26.90;78.30;;;;;;5103174;28;20052;-69
2023/09/17 11:25:10;;;;;;;2.47;2.17;;;26.90;76.80;;;;;;5106001;28;20035;-70
2023/09/17 11:27:50;;;;;;;2.65;2.40;;;26.90;77.20;;;;;;5102254;28;20505;-69
2023/09/17 11:30:23;;;;;;;4.70;2.40;;;26.80;77.30;;;;;;5097210;28;20068;-69
2023/09/17 11:32:55;;;;;;;3.15;2.70;;;26.90;77.10;;;;;;5105840;27;20082;-70
2023/09/17 11:35:22;;;;;;;3.00;2.70;;;27.00;77.10;;;;;;5105770;28;20084;-69
2023/09/17 11:37:48;;;;;;;2.33;2.13;;;27.10;74.90;;;;;;5105888;28;20055;-69
2023/09/17 11:40:15;;;;;;;14.20;8.48;;;27.20;75.10;;;;;;5099803;28;20042;-70
2023/09/17 11:42:42;;;;;;;4.43;3.22;;;27.30;75.20;;;;;;5105551;28;20051;-70
2023/09/17 11:45:08;;;;;;;4.50;3.70;;;27.40;74.60;;;;;;5105393;28;20822;-70
2023/09/17 11:47:38;;;;;;;6.65;5.90;;;27.50;72.70;;;;;;5105848;28;20032;-70
2023/09/17 11:50:07;;;;;;;4.32;3.00;;;27.50;74.90;;;;;;5105568;28;20050;-69
2023/09/17 11:52:33;;;;;;;4.65;2.40;;;27.40;76.40;;;;;;5105065;28;20035;-69
2023/09/17 11:55:06;;;;;;;3.72;2.70;;;27.50;72.50;;;;;;5104377;28;20027;-69
2023/09/17 11:57:33;;;;;;;4.75;2.67;;;27.50;74.60;;;;;;5105402;28;20035;-69
2023/09/17 11:59:59;;;;;;;2.22;2.05;;;27.60;72.20;;;;;;5105788;28;20043;-70
2023/09/17 12:02:27;;;;;;;2.67;2.45;;;27.60;71.40;;;;;;5105139;28;20028;-69
2023/09/17 12:04:54;;;;;;;3.03;2.72;;;27.50;72.90;;;;;;5104937;28;20096;-70
2023/09/17 12:07:20;;;;;;;3.63;2.53;;;27.60;71.90;;;;;;5105023;28;20019;-69
2023/09/17 12:10:00;;;;;;;4.75;2.60;;;27.70;73.00;;;;;;5105514;28;20088;-69
2023/09/17 12:12:28;;;;;;;3.03;2.40;;;27.70;72.70;;;;;;5097563;28;20032;-69
2023/09/17 12:14:55;;;;;;;6.28;2.38;;;27.70;71.50;;;;;;5105353;28;20528;-69
2023/09/17 12:17:21;;;;;;;3.35;2.33;;;27.70;71.40;;;;;;5101825;28;20028;-69
2023/09/17 12:19:59;;;;;;;2.72;2.42;;;27.70;70.90;;;;;;5105591;28;20034;-70
2023/09/17 12:22:36;;;;;;;3.50;2.65;;;27.60;70.90;;;;;;5100304;28;20616;-69
2023/09/17 12:25:19;;;;;;;3.58;2.50;;;27.70;71.30;;;;;;5105107;28;20034;-69
2023/09/17 12:27:48;;;;;;;2.50;2.30;;;27.60;70.30;;;;;;5099757;28;20031;-70
2023/09/17 12:30:14;;;;;;;3.90;2.28;;;27.60;72.30;;;;;;5104818;28;20035;-69
2023/09/17 12:32:41;;;;;;;3.22;2.72;;;27.60;70.90;;;;;;5104921;28;20027;-69
2023/09/17 12:35:07;;;;;;;4.45;2.67;;;27.70;70.90;;;;;;5104514;28;20084;-70
2023/09/17 12:37:33;;;;;;;3.05;2.75;;;27.60;71.20;;;;;;5101606;28;20070;-69
2023/09/17 12:39:59;;;;;;;2.75;2.55;;;27.60;71.00;;;;;;5104514;28;20055;-69
2023/09/17 12:42:25;;;;;;;2.90;2.55;;;27.60;72.70;;;;;;5105042;28;20047;-69
2023/09/17 12:44:53;;;;;;;5.38;2.60;;;27.50;73.20;;;;;;5105022;28;20030;-70